Time;durP1;ratioP1;P1;durP2;ratioP2;P2;SDS_P1;SDS_P2;PMS_P1;PMS_P2;Temp;Humidity;BMP_temperature;BMP_pressure;BME280_temperature;BME280_humidity;BME280_pressure;Samples;Min_cycle;Max_cycle;Signal;HPM_P1;HPM_P2
2023/12/29 00:01:45;;;;;;;8.68;1.95;;;;;;;9.54;100.00;100406.22;4750116;30;20042;-72
2023/12/29 00:04:10;;;;;;;6.60;2.08;;;;;;;9.54;100.00;100406.22;4753106;30;20105;-74
2023/12/29 00:06:39;;;;;;;8.93;2.50;;;;;;;9.49;100.00;100411.38;4752155;30;20036;-72
2023/12/29 00:09:05;;;;;;;6.72;2.08;;;;;;;9.47;100.00;100392.19;4752181;30;20040;-72
2023/12/29 00:11:30;;;;;;;5.50;1.88;;;;;;;9.52;100.00;100389.03;4753710;30;20047;-72
2023/12/29 00:13:56;;;;;;;9.18;2.30;;;;;;;9.54;100.00;100385.88;4747835;30;20412;-72
2023/12/29 00:16:21;;;;;;;8.10;2.60;;;;;;;9.52;100.00;100380.66;4765710;30;20103;-72
2023/12/29 00:18:46;;;;;;;7.95;2.60;;;;;;;9.50;100.00;100379.44;4754589;30;20032;-72
2023/12/29 00:21:12;;;;;;;9.75;3.67;;;;;;;9.54;100.00;100385.88;4759643;30;20407;-73
2023/12/29 00:23:37;;;;;;;9.02;2.10;;;;;;;9.58;100.00;100386.72;4755890;30;20486;-74
2023/12/29 00:26:03;;;;;;;7.15;2.40;;;;;;;9.52;100.00;100388.25;4763209;30;20039;-73
2023/12/29 00:28:28;;;;;;;11.65;3.13;;;;;;;9.49;100.00;100369.47;4753123;30;20483;-73
2023/12/29 00:30:53;;;;;;;18.30;3.47;;;;;;;9.40;100.00;100383.72;4755036;30;20111;-72
2023/12/29 00:33:19;;;;;;;14.60;3.28;;;;;;;9.40;100.00;100369.75;4756618;30;20115;-72
2023/12/29 00:35:44;;;;;;;10.15;3.40;;;;;;;9.42;100.00;100367.38;4748420;30;20036;-73
2023/12/29 00:38:09;;;;;;;22.83;4.18;;;;;;;9.39;100.00;100356.97;4770493;30;20119;-72
2023/12/29 00:40:35;;;;;;;15.52;4.25;;;;;;;9.38;100.00;100358.16;4765808;30;20040;-72
2023/12/29 00:43:01;;;;;;;14.02;4.28;;;;;;;9.38;100.00;100360.94;4757055;30;20121;-72
2023/12/29 00:45:31;;;;;;;14.55;4.70;;;;;;;9.36;100.00;100357.75;4763369;29;20534;-72
2023/12/29 00:47:57;;;;;;;13.05;4.32;;;;;;;9.42;100.00;100347.81;4763301;30;20081;-73
2023/12/29 00:50:22;;;;;;;20.13;4.28;;;;;;;9.49;100.00;100339.53;4765025;30;21252;-72
2023/12/29 00:52:48;;;;;;;12.65;4.68;;;;;;;9.50;100.00;100345.91;4767356;30;20081;-74
2023/12/29 00:55:13;;;;;;;9.52;2.78;;;;;;;9.53;100.00;100343.16;4755547;30;20399;-75
2023/12/29 00:57:38;;;;;;;10.23;3.75;;;;;;;9.54;100.00;100330.78;4761783;30;20391;-74
2023/12/29 01:00:05;;;;;;;16.25;4.32;;;;;;;9.60;100.00;100330.44;4755034;30;20063;-73
2023/12/29 01:02:30;;;;;;;10.70;3.20;;;;;;;9.62;100.00;100328.88;4755597;30;20032;-72
2023/12/29 01:04:55;;;;;;;10.07;3.50;;;;;;;9.60;100.00;100324.88;4754016;30;20553;-72
2023/12/29 01:07:21;;;;;;;14.95;4.60;;;;;;;9.63;100.00;100321.28;4757582;30;20063;-72
2023/12/29 01:09:46;;;;;;;11.10;3.53;;;;;;;9.64;100.00;100320.13;4753735;30;20079;-72
2023/12/29 01:12:11;;;;;;;8.57;3.22;;;;;;;9.65;100.00;100310.53;4749913;30;20040;-72
2023/12/29 01:14:37;;;;;;;8.80;2.40;;;;;;;9.69;100.00;100325.34;4752559;30;20027;-73
2023/12/29 01:17:02;;;;;;;5.07;2.45;;;;;;;9.71;100.00;100322.97;4751823;30;20448;-73
2023/12/29 01:19:28;;;;;;;10.70;2.67;;;;;;;9.65;100.00;100316.13;4757190;30;20047;-72
2023/12/29 01:21:53;;;;;;;5.53;2.80;;;;;;;9.59;100.00;100304.47;4750838;30;20036;-76
2023/12/29 01:24:18;;;;;;;8.75;2.75;;;;;;;9.53;100.00;100295.66;4761488;30;20035;-73
2023/12/29 01:26:44;;;;;;;12.60;3.35;;;;;;;9.55;100.00;100287.72;4765601;30;20038;-74
2023/12/29 01:29:09;;;;;;;12.85;3.42;;;;;;;9.55;100.00;100290.50;4763623;29;20066;-73
2023/12/29 01:31:35;;;;;;;12.65;3.83;;;;;;;9.56;100.00;100289.28;4769757;30;20031;-72
2023/12/29 01:34:00;;;;;;;11.45;2.88;;;;;;;9.56;100.00;100269.75;4765257;30;20062;-72
2023/12/29 01:36:25;;;;;;;9.30;2.55;;;;;;;9.57;100.00;100276.94;4760062;30;20050;-72
2023/12/29 01:38:51;;;;;;;8.20;2.42;;;;;;;9.60;100.00;100289.34;4759316;30;20038;-72
2023/12/29 01:41:19;;;;;;;9.23;2.72;;;;;;;9.60;100.00;100280.94;4765250;30;20085;-72
2023/12/29 01:44:00;;;;;;;8.57;4.15;;;;;;;9.60;100.00;100282.94;4772556;30;20130;-72
2023/12/29 01:46:27;;;;;;;23.98;5.38;;;;;;;9.65;100.00;100297.34;4761122;30;20047;-73
2023/12/29 01:48:52;;;;;;;10.43;3.47;;;;;;;9.65;100.00;100291.75;4762834;29;20052;-73
2023/12/29 01:51:20;;;;;;;7.38;3.00;;;;;;;9.67;100.00;100288.59;4760306;30;20054;-71
2023/12/29 01:53:46;;;;;;;10.63;3.10;;;;;;;9.68;100.00;100287.41;4764110;29;20036;-72
2023/12/29 01:56:12;;;;;;;10.90;2.95;;;;;;;9.72;100.00;100279.88;4764464;30;20455;-75
2023/12/29 01:58:37;;;;;;;10.50;3.63;;;;;;;9.69;100.00;100289.00;4753739;30;20099;-75
2023/12/29 02:01:04;;;;;;;10.23;3.55;;;;;;;9.73;100.00;100284.25;4767593;30;20114;-76
2023/12/29 02:03:30;;;;;;;7.47;2.67;;;;;;;9.70;100.00;100265.47;4759916;30;20044;-78
2023/12/29 02:05:55;;;;;;;14.18;3.53;;;;;;;9.71;100.00;100286.63;4751416;30;20546;-75
2023/12/29 02:08:22;;;;;;;9.45;2.08;;;;;;;9.76;100.00;100269.50;4751259;30;20038;-76
2023/12/29 02:10:48;;;;;;;7.43;3.28;;;;;;;9.79;100.00;100285.50;4763876;30;20487;-76
2023/12/29 02:13:14;;;;;;;11.27;3.45;;;;;;;9.81;100.00;100288.72;4752805;30;20120;-76
2023/12/29 02:15:40;;;;;;;9.93;3.80;;;;;;;9.86;100.00;100296.72;4759434;30;20057;-76
2023/12/29 02:18:07;;;;;;;12.35;3.03;;;;;;;9.89;100.00;100287.59;4749133;30;20096;-76
2023/12/29 02:20:33;;;;;;;10.50;3.53;;;;;;;9.89;100.00;100298.75;4750213;30;20115;-76
2023/12/29 02:22:58;;;;;;;11.60;2.72;;;;;;;9.89;100.00;100301.56;4758773;30;20435;-76
2023/12/29 02:25:24;;;;;;;9.13;3.35;;;;;;;9.91;100.00;100315.97;4755397;30;20052;-76
2023/12/29 02:27:56;;;;;;;10.50;3.75;;;;;;;9.92;100.00;100300.78;4761014;30;20455;-76
2023/12/29 02:30:44;;;;;;;13.70;3.47;;;;;;;9.95;100.00;100305.59;4753850;30;20050;-76
2023/12/29 02:33:14;;;;;;;8.07;2.55;;;;;;;9.96;100.00;100312.00;4753913;30;20396;-76
2023/12/29 02:35:43;;;;;;;11.38;2.67;;;;;;;9.92;100.00;100317.53;4756685;30;20035;-76
2023/12/29 02:38:09;;;;;;;8.20;3.72;;;;;;;9.93;100.00;100321.97;4749524;30;20120;-77
2023/12/29 02:40:35;;;;;;;14.18;4.35;;;;;;;9.97;100.00;100305.19;4762496;29;20035;-76
2023/12/29 02:43:00;;;;;;;9.20;2.72;;;;;;;9.92;100.00;100313.97;4761423;30;20051;-76
2023/12/29 02:45:27;;;;;;;11.48;3.67;;;;;;;9.83;100.00;100313.50;4755658;30;20035;-76
2023/12/29 02:47:53;;;;;;;9.10;3.00;;;;;;;9.77;100.00;100307.44;4751929;30;20511;-76
2023/12/29 02:50:18;;;;;;;7.70;2.70;;;;;;;9.66;100.00;100304.56;4758769;30;20031;-76
2023/12/29 02:52:43;;;;;;;9.27;3.35;;;;;;;9.62;100.00;100311.31;4752722;30;20063;-76
2023/12/29 02:55:09;;;;;;;14.57;2.65;;;;;;;9.53;100.00;100292.88;4759505;30;20039;-76
2023/12/29 02:57:34;;;;;;;11.98;3.20;;;;;;;9.55;100.00;100303.66;4760734;30;20040;-76
2023/12/29 03:00:00;;;;;;;12.73;3.08;;;;;;;9.52;100.00;100296.03;4757819;30;20197;-76
2023/12/29 03:02:25;;;;;;;10.05;3.08;;;;;;;9.59;100.00;100310.06;4761760;30;20032;-76
2023/12/29 03:04:50;;;;;;;13.00;3.55;;;;;;;9.53;100.00;100286.50;4762974;30;20035;-76
2023/12/29 03:07:16;;;;;;;11.13;3.28;;;;;;;9.48;100.00;100281.25;4765971;30;20032;-76
2023/12/29 03:09:41;;;;;;;11.05;3.47;;;;;;;9.48;100.00;100267.28;4761571;30;20124;-76
2023/12/29 03:12:07;;;;;;;9.80;3.08;;;;;;;9.47;100.00;100263.69;4763241;30;20127;-76
2023/12/29 03:14:32;;;;;;;11.55;3.80;;;;;;;9.55;100.00;100273.72;4758289;30;20039;-76
2023/12/29 03:16:58;;;;;;;10.77;3.65;;;;;;;9.56;100.00;100280.13;4756188;30;20032;-75
2023/12/29 03:19:24;;;;;;;6.43;2.88;;;;;;;9.64;100.00;100281.78;4754757;30;20038;-75
2023/12/29 03:21:49;;;;;;;9.02;2.85;;;;;;;9.63;100.00;100284.97;4754692;30;20036;-75
2023/12/29 03:24:14;;;;;;;7.28;2.75;;;;;;;9.63;100.00;100282.16;4757127;30;20032;-75
2023/12/29 03:26:40;;;;;;;7.75;2.30;;;;;;;9.59;100.00;100287.72;4755691;30;20110;-75
2023/12/29 03:29:06;;;;;;;14.20;3.17;;;;;;;9.58;100.00;100291.72;4757783;30;20396;-75
2023/12/29 03:31:31;;;;;;;17.58;4.32;;;;;;;9.60;100.00;100285.75;4761351;30;20032;-75
2023/12/29 03:33:57;;;;;;;8.55;2.55;;;;;;;9.57;100.00;100296.50;4749941;30;20106;-75
2023/12/29 03:36:22;;;;;;;6.75;2.15;;;;;;;9.63;100.00;100282.16;4767441;30;20077;-76
2023/12/29 03:38:47;;;;;;;8.48;2.80;;;;;;;9.61;100.00;100284.53;4780053;29;20019;-75
2023/12/29 03:41:13;;;;;;;9.90;3.00;;;;;;;9.61;100.00;100279.75;4749487;29;20103;-75
2023/12/29 03:43:38;;;;;;;11.65;2.92;;;;;;;9.60;100.00;100288.53;4760684;30;20040;-76
2023/12/29 03:46:15;;;;;;;12.85;4.20;;;;;;;9.64;100.00;100289.38;4748347;30;20662;-76
2023/12/29 03:48:40;;;;;;;14.00;3.80;;;;;;;9.59;100.00;100289.72;4751977;30;20147;-76
2023/12/29 03:51:06;;;;;;;9.98;3.13;;;;;;;9.61;100.00;100301.31;4755706;30;20107;-75
2023/12/29 03:53:31;;;;;;;8.55;2.28;;;;;;;9.59;100.00;100306.47;4756976;29;20069;-75
2023/12/29 03:55:56;;;;;;;14.02;3.08;;;;;;;9.55;100.00;100298.88;4760395;30;20063;-75
2023/12/29 03:58:22;;;;;;;10.13;2.65;;;;;;;9.53;100.00;100306.84;4754427;30;20400;-75
2023/12/29 04:00:47;;;;;;;12.77;2.90;;;;;;;9.56;100.00;100300.47;4749476;30;20028;-75
2023/12/29 04:03:12;;;;;;;11.50;2.95;;;;;;;9.56;100.00;100325.63;4756251;30;20464;-75
2023/12/29 04:05:38;;;;;;;15.55;3.40;;;;;;;9.54;100.00;100302.84;4759645;30;20031;-75
2023/12/29 04:08:03;;;;;;;8.65;3.08;;;;;;;9.53;100.00;100301.25;4780985;29;20418;-76
2023/12/29 04:10:29;;;;;;;14.02;3.42;;;;;;;9.53;100.00;100284.50;4767349;30;20027;-75
2023/12/29 04:12:54;;;;;;;7.63;2.45;;;;;;;9.56;100.00;100294.09;4765049;30;20067;-75
2023/12/29 04:15:20;;;;;;;12.00;3.97;;;;;;;9.49;100.00;100297.63;4758478;30;20031;-76
2023/12/29 04:17:45;;;;;;;11.52;3.35;;;;;;;9.51;100.00;100300.03;4772891;30;20523;-76
2023/12/29 04:20:10;;;;;;;14.57;3.38;;;;;;;9.50;100.00;100301.22;4770957;30;20032;-77
2023/12/29 04:22:36;;;;;;;8.90;2.65;;;;;;;9.50;100.00;100312.38;4770511;30;20050;-75
2023/12/29 04:25:01;;;;;;;18.30;3.88;;;;;;;9.46;100.00;100301.16;4781709;30;20118;-75
2023/12/29 04:27:27;;;;;;;15.90;3.92;;;;;;;9.41;100.00;100293.16;4763222;29;20047;-75
2023/12/29 04:29:52;;;;;;;8.55;3.00;;;;;;;9.40;100.00;100308.28;4781491;30;20052;-75
2023/12/29 04:32:17;;;;;;;12.82;2.75;;;;;;;9.41;100.00;100301.53;4781302;29;20039;-75
2023/12/29 04:34:43;;;;;;;8.63;3.95;;;;;;;9.41;100.00;100298.75;4762106;30;20493;-75
2023/12/29 04:37:08;;;;;;;17.42;3.05;;;;;;;9.40;100.00;100287.94;4774150;30;20645;-75
2023/12/29 04:39:33;;;;;;;16.83;3.03;;;;;;;9.45;100.00;100296.00;4758449;30;20040;-75
2023/12/29 04:41:59;;;;;;;11.30;3.65;;;;;;;9.48;100.00;100304.38;4762066;30;20077;-75
2023/12/29 04:44:24;;;;;;;11.80;2.72;;;;;;;9.48;100.00;100290.41;4760386;30;20028;-76
2023/12/29 04:46:49;;;;;;;18.15;3.30;;;;;;;9.48;100.00;100284.03;4765593;30;20039;-76
2023/12/29 04:49:15;;;;;;;17.63;3.55;;;;;;;9.44;100.00;100303.53;4752157;30;20044;-76
2023/12/29 04:51:40;;;;;;;20.15;4.28;;;;;;;9.43;100.00;100296.38;4764039;30;20103;-76
2023/12/29 04:54:05;;;;;;;17.48;3.08;;;;;;;9.43;100.00;100284.41;4764491;30;20047;-75
2023/12/29 04:56:31;;;;;;;15.45;2.70;;;;;;;9.41;100.00;100298.75;4767424;30;20059;-75
2023/12/29 04:58:56;;;;;;;17.30;4.13;;;;;;;9.48;100.00;100298.78;4763795;30;20468;-75
2023/12/29 05:01:22;;;;;;;12.35;3.60;;;;;;;9.44;100.00;100306.34;4758716;30;20419;-75
2023/12/29 05:03:47;;;;;;;17.13;4.45;;;;;;;9.43;100.00;100307.53;4759844;29;20532;-76
2023/12/29 05:06:12;;;;;;;16.55;4.68;;;;;;;9.38;100.00;100307.06;4760977;30;20062;-75
2023/12/29 05:08:37;;;;;;;16.00;4.28;;;;;;;9.42;100.00;100314.31;4761017;30;20040;-75
2023/12/29 05:11:03;;;;;;;14.90;4.28;;;;;;;9.40;100.00;100322.25;4775895;30;20035;-75
2023/12/29 05:13:29;;;;;;;16.85;3.90;;;;;;;9.40;100.00;100325.06;4773808;30;20092;-75
2023/12/29 05:15:54;;;;;;;27.60;5.18;;;;;;;9.40;100.00;100319.47;4768481;29;20028;-76
2023/12/29 05:18:20;;;;;;;14.07;5.53;;;;;;;9.45;100.00;100307.97;4769193;30;20047;-76
2023/12/29 05:20:45;;;;;;;20.88;4.63;;;;;;;9.42;100.00;100322.69;4783309;29;20038;-76
2023/12/29 05:23:10;;;;;;;21.67;4.85;;;;;;;9.43;100.00;100296.38;4766795;29;20039;-76
2023/12/29 05:25:36;;;;;;;21.30;3.80;;;;;;;9.41;100.00;100304.31;4779176;29;20039;-75
2023/12/29 05:28:01;;;;;;;13.80;3.67;;;;;;;9.42;100.00;100305.91;4771719;29;20406;-75
2023/12/29 05:30:27;;;;;;;10.95;3.47;;;;;;;9.51;100.00;100320.41;4773703;29;20040;-76
2023/12/29 05:32:53;;;;;;;15.25;3.15;;;;;;;9.53;100.00;100329.19;4767264;30;20059;-75
2023/12/29 05:35:18;;;;;;;17.38;3.95;;;;;;;9.58;100.00;100325.25;4778958;29;20043;-75
2023/12/29 05:37:44;;;;;;;12.35;2.90;;;;;;;9.63;100.00;100316.50;4769208;29;20495;-76
2023/12/29 05:40:10;;;;;;;16.27;4.13;;;;;;;9.56;100.00;100328.41;4777355;29;20032;-76
2023/12/29 05:42:35;;;;;;;11.48;3.15;;;;;;;9.60;100.00;100338.84;4765683;29;20036;-75
2023/12/29 05:45:00;;;;;;;17.23;3.40;;;;;;;9.60;100.00;100341.63;4762926;30;20043;-76
2023/12/29 05:47:26;;;;;;;10.85;2.83;;;;;;;9.54;100.00;100341.16;4754519;29;20060;-76
2023/12/29 05:49:51;;;;;;;16.08;3.97;;;;;;;9.56;100.00;100339.59;4758013;30;20044;-76
2023/12/29 05:52:16;;;;;;;17.92;6.53;;;;;;;9.55;100.00;100310.06;4766103;30;20044;-76
2023/12/29 05:54:42;;;;;;;23.63;4.97;;;;;;;9.55;100.00;100315.66;4763002;30;20039;-77
2023/12/29 05:57:07;;;;;;;26.10;6.30;;;;;;;9.53;100.00;100306.84;4763575;29;20040;-75
2023/12/29 05:59:32;;;;;;;17.55;6.18;;;;;;;9.58;100.00;100314.06;4760729;30;20595;-75
2023/12/29 06:01:58;;;;;;;14.10;3.90;;;;;;;9.57;100.00;100307.69;4755967;29;20525;-76
2023/12/29 06:04:23;;;;;;;20.52;4.63;;;;;;;9.60;100.00;100331.25;4760729;30;20040;-75
2023/12/29 06:06:49;;;;;;;13.95;5.53;;;;;;;9.58;100.00;100322.44;4766952;30;20035;-75
2023/12/29 06:09:14;;;;;;;17.30;4.78;;;;;;;9.54;100.00;100336.38;4764786;30;20089;-76
2023/12/29 06:11:40;;;;;;;16.88;4.43;;;;;;;9.54;100.00;100330.78;4756041;30;20040;-76
2023/12/29 06:14:06;;;;;;;15.93;4.68;;;;;;;9.55;100.00;100326.81;4764501;30;20530;-76
2023/12/29 06:16:31;;;;;;;17.60;4.13;;;;;;;9.55;100.00;100332.41;4767612;29;20469;-75
2023/12/29 06:18:57;;;;;;;12.43;3.97;;;;;;;9.59;100.00;100342.81;4779303;30;20035;-76
2023/12/29 06:21:22;;;;;;;16.95;5.72;;;;;;;9.58;100.00;100314.06;4769666;29;20111;-76
2023/12/29 06:23:48;;;;;;;19.63;4.00;;;;;;;9.57;100.00;100324.44;4770813;30;20510;-76
2023/12/29 06:26:18;;;;;;;12.93;3.97;;;;;;;9.61;100.00;100318.06;4771776;30;20042;-77
2023/12/29 06:28:47;;;;;;;20.55;4.95;;;;;;;9.61;100.00;100320.88;4773059;29;20043;-76
2023/12/29 06:31:13;;;;;;;19.00;5.20;;;;;;;9.55;100.00;100315.66;4757405;29;20407;-76
2023/12/29 06:33:44;;;;;;;22.98;4.68;;;;;;;9.57;100.00;100298.47;4779098;30;20031;-76
2023/12/29 06:36:10;;;;;;;19.83;5.10;;;;;;;9.62;100.00;100314.09;4765853;30;20043;-75
2023/12/29 06:38:36;;;;;;;26.77;6.05;;;;;;;9.63;100.00;100310.09;4762775;30;20460;-75
2023/12/29 06:41:03;;;;;;;21.52;5.10;;;;;;;9.66;100.00;100303.78;4755462;30;20514;-76
2023/12/29 06:43:28;;;;;;;28.17;5.80;;;;;;;9.63;100.00;100310.09;4754628;30;20127;-76
2023/12/29 06:45:54;;;;;;;23.33;4.45;;;;;;;9.65;100.00;100319.72;4752325;30;20111;-76
2023/12/29 06:48:19;;;;;;;17.05;5.70;;;;;;;9.66;100.00;100304.56;4754722;30;20102;-76
2023/12/29 06:50:45;;;;;;;18.30;3.85;;;;;;;9.59;100.00;100275.75;4750824;30;20399;-76
2023/12/29 06:53:11;;;;;;;18.77;4.03;;;;;;;9.62;100.00;100284.16;4753324;30;20036;-76
2023/12/29 06:55:37;;;;;;;17.13;3.28;;;;;;;9.64;100.00;100295.75;4757500;30;20047;-76
2023/12/29 06:58:02;;;;;;;15.32;3.63;;;;;;;9.63;100.00;100299.72;4753581;30;20039;-76
2023/12/29 07:00:28;;;;;;;17.38;3.40;;;;;;;9.61;100.00;100301.31;4753777;30;20393;-76
2023/12/29 07:02:53;;;;;;;11.43;4.60;;;;;;;9.65;100.00;100299.34;4765231;30;20391;-76
2023/12/29 07:05:19;;;;;;;19.17;5.10;;;;;;;9.67;100.00;100296.97;4751737;30;20040;-76
2023/12/29 07:07:44;;;;;;;13.50;4.13;;;;;;;9.65;100.00;100299.34;4752711;30;20093;-75
2023/12/29 07:10:13;;;;;;;19.50;4.22;;;;;;;9.69;100.00;100306.56;4750943;30;20040;-76
2023/12/29 07:12:40;;;;;;;16.52;4.03;;;;;;;9.68;100.00;100307.78;4751833;30;20488;-76
2023/12/29 07:15:06;;;;;;;21.15;5.68;;;;;;;9.69;100.00;100305.78;4759752;30;20120;-75
2023/12/29 07:17:31;;;;;;;10.80;3.90;;;;;;;9.68;100.00;100295.81;4771767;30;20059;-76
2023/12/29 07:19:57;;;;;;;25.95;4.15;;;;;;;9.72;100.00;100307.81;4765408;30;20028;-76
2023/12/29 07:22:22;;;;;;;18.30;4.93;;;;;;;9.76;100.00;100305.81;4768248;30;20290;-76
2023/12/29 07:24:47;;;;;;;13.88;4.22;;;;;;;9.74;100.00;100313.81;4772153;30;20032;-75
2023/12/29 07:27:13;;;;;;;18.95;4.28;;;;;;;9.78;100.00;100306.25;4767531;29;20054;-75
2023/12/29 07:29:38;;;;;;;18.52;4.53;;;;;;;9.79;100.00;100323.84;4765937;30;20028;-75
2023/12/29 07:32:05;;;;;;;15.63;5.25;;;;;;;9.72;100.00;100314.19;4763030;29;20529;-75
2023/12/29 07:34:31;;;;;;;13.35;3.17;;;;;;;9.80;100.00;100308.66;4766974;30;20515;-77
2023/12/29 07:36:58;;;;;;;10.88;2.58;;;;;;;9.79;100.00;100307.06;4763831;30;20063;-75
2023/12/29 07:39:23;;;;;;;13.55;3.75;;;;;;;9.86;100.00;100319.09;4753519;30;20188;-75
2023/12/29 07:41:50;;;;;;;16.67;4.00;;;;;;;9.83;100.00;100319.09;4779723;30;20441;-75
2023/12/29 07:44:16;;;;;;;20.60;4.13;;;;;;;9.81;100.00;100313.06;4773979;30;20054;-75
2023/12/29 07:46:44;;;;;;;14.55;4.55;;;;;;;9.79;100.00;100307.06;4768113;30;20060;-73
2023/12/29 07:49:10;;;;;;;22.75;4.93;;;;;;;9.84;100.00;100304.69;4775358;30;20108;-72
2023/12/29 07:51:40;;;;;;;18.90;4.60;;;;;;;9.79;100.00;100293.88;4754109;29;20079;-71
2023/12/29 07:54:06;;;;;;;13.43;4.63;;;;;;;9.84;100.00;100310.28;4767723;30;20054;-73
2023/12/29 07:56:32;;;;;;;14.93;4.82;;;;;;;9.83;100.00;100303.09;4762236;30;20486;-73
2023/12/29 07:58:57;;;;;;;16.60;4.10;;;;;;;9.85;100.00;100309.13;4773176;30;20035;-74
2023/12/29 08:01:23;;;;;;;15.40;5.72;;;;;;;9.88;100.00;100322.31;4760474;30;20040;-74
2023/12/29 08:03:48;;;;;;;16.92;4.68;;;;;;;9.88;100.00;100319.50;4768878;30;20039;-72
2023/12/29 08:06:13;;;;;;;14.43;4.57;;;;;;;9.85;100.00;100311.91;4771337;30;20075;-77
2023/12/29 08:08:39;;;;;;;21.45;4.57;;;;;;;9.86;100.00;100296.72;4767922;30;20411;-71
2023/12/29 08:11:04;;;;;;;15.25;4.78;;;;;;;9.90;100.00;100297.56;4760782;30;20067;-72
2023/12/29 08:13:29;;;;;;;15.25;3.95;;;;;;;9.86;100.00;100302.31;4775702;30;20031;-71
2023/12/29 08:15:55;;;;;;;11.68;3.55;;;;;;;9.94;100.00;100320.75;4779362;30;20083;-73
2023/12/29 08:18:20;;;;;;;13.02;4.15;;;;;;;9.89;100.00;100321.13;4768794;29;20127;-74
2023/12/29 08:20:45;;;;;;;15.02;3.67;;;;;;;9.89;100.00;100318.34;4775143;30;20027;-73
2023/12/29 08:23:11;;;;;;;14.55;3.83;;;;;;;9.88;100.00;100322.31;4754534;29;20040;-73
2023/12/29 08:25:37;;;;;;;14.57;5.10;;;;;;;9.90;100.00;100328.31;4782361;29;20074;-73
2023/12/29 08:28:02;;;;;;;13.52;4.53;;;;;;;9.86;100.00;100329.47;4768760;30;20384;-73
2023/12/29 08:30:27;;;;;;;10.93;3.75;;;;;;;9.84;100.00;100321.47;4778393;30;20035;-72
2023/12/29 08:32:53;;;;;;;13.63;4.00;;;;;;;9.79;100.00;100326.63;4761405;29;20044;-74
2023/12/29 08:35:18;;;;;;;13.30;4.35;;;;;;;9.79;100.00;100323.84;4768661;30;20076;-74
2023/12/29 08:37:44;;;;;;;10.23;4.40;;;;;;;9.84;100.00;100315.88;4757484;30;20071;-73
2023/12/29 08:40:09;;;;;;;16.35;4.03;;;;;;;9.85;100.00;100331.47;4773633;30;20042;-73
2023/12/29 08:42:34;;;;;;;10.43;3.80;;;;;;;9.89;100.00;100318.34;4771917;29;20040;-73
2023/12/29 08:45:00;;;;;;;12.85;4.40;;;;;;;9.91;100.00;100334.72;4758745;30;20076;-73
2023/12/29 08:47:26;;;;;;;10.40;3.28;;;;;;;9.91;100.00;100323.53;4749764;29;20060;-73
2023/12/29 08:49:51;;;;;;;9.90;3.50;;;;;;;9.90;100.00;100321.94;4755466;30;20102;-73
2023/12/29 08:52:16;;;;;;;16.95;4.45;;;;;;;9.91;100.00;100326.34;4751708;29;20480;-73
2023/12/29 08:54:42;;;;;;;9.15;4.00;;;;;;;9.91;100.00;100326.34;4755364;30;20566;-73
2023/12/29 08:57:07;;;;;;;11.60;4.22;;;;;;;9.86;100.00;100310.72;4757859;29;20597;-76
2023/12/29 08:59:33;;;;;;;14.63;3.90;;;;;;;9.86;100.00;100324.69;4756772;30;20034;-76
2023/12/29 09:01:58;;;;;;;9.52;4.28;;;;;;;9.83;100.00;100314.28;4751984;29;20115;-76
2023/12/29 09:04:24;;;;;;;11.48;4.22;;;;;;;9.78;100.00;100303.44;4753218;30;20595;-76
2023/12/29 09:06:49;;;;;;;10.18;3.60;;;;;;;9.73;100.00;100321.38;4754832;29;20381;-76
2023/12/29 09:09:15;;;;;;;7.75;3.50;;;;;;;9.55;100.00;100335.19;4756725;30;20411;-76
2023/12/29 09:11:42;;;;;;;8.40;3.30;;;;;;;9.39;100.00;100340.22;4752134;30;20036;-76
2023/12/29 09:14:07;;;;;;;7.35;3.33;;;;;;;9.12;100.00;100308.81;4760103;30;20035;-76
2023/12/29 09:16:35;;;;;;;5.28;1.70;;;;;;;9.19;100.00;100308.06;4769506;29;20032;-76
2023/12/29 09:19:01;;;;;;;3.30;1.65;;;;;;;9.14;100.00;100315.59;4770700;29;20066;-76
2023/12/29 09:21:26;;;;;;;11.88;2.88;;;;;;;9.21;100.00;100328.03;4767826;29;20548;-76
2023/12/29 09:23:52;;;;;;;4.82;2.58;;;;;;;9.18;100.00;100334.41;4768584;29;20031;-76
2023/12/29 09:26:17;;;;;;;8.48;2.47;;;;;;;9.26;100.00;100333.31;4767691;30;20035;-76
2023/12/29 09:28:46;;;;;;;9.68;2.95;;;;;;;9.26;100.00;100328.50;4763827;29;20038;-76
2023/12/29 09:31:12;;;;;;;7.05;2.60;;;;;;;9.29;100.00;100324.16;4769796;30;20500;-76
2023/12/29 09:33:37;;;;;;;9.73;3.70;;;;;;;9.33;100.00;100341.75;4767012;29;20040;-76
2023/12/29 09:36:04;;;;;;;13.43;3.22;;;;;;;9.34;100.00;100329.41;4769273;30;20032;-75
2023/12/29 09:38:29;;;;;;;9.93;4.15;;;;;;;9.43;100.00;100324.31;4762953;29;20035;-75
2023/12/29 09:41:02;;;;;;;8.05;3.38;;;;;;;9.45;100.00;100310.75;4772073;30;20529;-76
2023/12/29 09:43:31;;;;;;;8.23;4.07;;;;;;;9.43;100.00;100307.53;4767014;29;20075;-76
2023/12/29 09:45:58;;;;;;;11.32;4.00;;;;;;;9.44;100.00;100303.53;4762294;30;20032;-75
2023/12/29 09:48:26;;;;;;;9.18;3.05;;;;;;;9.48;100.00;100315.56;4753171;30;20083;-75
2023/12/29 09:50:52;;;;;;;10.13;2.97;;;;;;;9.54;100.00;100319.63;4756543;30;20819;-76
2023/12/29 09:53:20;;;;;;;11.93;3.70;;;;;;;9.53;100.00;100340.38;4752168;30;20071;-75
2023/12/29 09:55:48;;;;;;;6.53;3.78;;;;;;;9.51;100.00;100331.56;4761709;30;20028;-76
2023/12/29 09:58:15;;;;;;;11.48;3.45;;;;;;;9.56;100.00;100333.19;4757657;30;20126;-76
2023/12/29 10:00:42;;;;;;;6.43;3.63;;;;;;;9.59;100.00;100343.59;4757252;30;20074;-75
2023/12/29 10:03:08;;;;;;;9.32;4.50;;;;;;;9.64;100.00;100334.09;4761661;30;20122;-76
2023/12/29 10:05:34;;;;;;;10.43;3.95;;;;;;;9.64;100.00;100322.91;4766688;30;20521;-76
2023/12/29 10:08:03;;;;;;;5.75;3.10;;;;;;;9.70;100.00;100330.56;4761367;30;20035;-73
2023/12/29 10:10:30;;;;;;;11.75;3.85;;;;;;;9.69;100.00;100317.75;4765632;30;20566;-73
2023/12/29 10:12:57;;;;;;;9.50;3.55;;;;;;;9.72;100.00;100313.41;4769528;30;20032;-72
2023/12/29 10:15:45;;;;;;;9.27;3.35;;;;;;;9.71;100.00;100300.59;4754336;30;20554;-73
2023/12/29 10:18:30;;;;;;;6.60;2.80;;;;;;;9.69;100.00;100297.38;4758995;30;20515;-72
2023/12/29 10:21:12;;;;;;;10.38;2.30;;;;;;;9.62;100.00;100309.31;4774060;30;20027;-72
2023/12/29 10:23:43;;;;;;;5.03;2.70;;;;;;;9.59;100.00;100326.03;4754346;30;20518;-75
2023/12/29 10:26:11;;;;;;;6.50;2.85;;;;;;;9.56;100.00;100331.22;4763278;30;20040;-73
2023/12/29 10:28:36;;;;;;;10.57;2.38;;;;;;;9.54;100.00;100319.63;4762215;30;20040;-74
2023/12/29 10:31:03;;;;;;;6.28;2.90;;;;;;;9.61;100.00;100351.59;4763302;30;20097;-73
2023/12/29 10:33:31;;;;;;;7.28;2.70;;;;;;;9.60;100.00;100350.00;4757971;30;20556;-73
2023/12/29 10:36:02;;;;;;;10.35;3.13;;;;;;;9.62;100.00;100351.22;4765626;29;20085;-73
2023/12/29 10:38:27;;;;;;;5.47;2.30;;;;;;;9.68;100.00;100371.25;4760565;30;20040;-72
2023/12/29 10:40:53;;;;;;;7.10;2.95;;;;;;;9.72;100.00;100346.94;4766812;30;20043;-74
2023/12/29 10:43:24;;;;;;;13.00;3.53;;;;;;;9.79;100.00;100363.75;4762855;30;20044;-72
2023/12/29 10:46:06;;;;;;;7.82;2.83;;;;;;;9.79;100.00;100341.41;4772011;30;20035;-72
2023/12/29 10:48:31;;;;;;;7.10;2.80;;;;;;;9.82;100.00;100346.22;4780250;30;20410;-73
2023/12/29 10:50:57;;;;;;;5.50;2.75;;;;;;;9.84;100.00;100365.41;4766388;29;20039;-72
2023/12/29 10:53:23;;;;;;;6.90;2.17;;;;;;;9.90;100.00;100375.03;4780619;30;20042;-72
2023/12/29 10:55:48;;;;;;;12.80;2.92;;;;;;;9.94;100.00;100362.69;4768378;30;20035;-72
2023/12/29 10:58:16;;;;;;;9.48;3.15;;;;;;;9.93;100.00;100366.69;4758241;30;20039;-75
2023/12/29 11:00:42;;;;;;;9.13;2.70;;;;;;;9.94;100.00;100387.84;4764817;30;20032;-71
2023/12/29 11:03:07;;;;;;;4.28;2.28;;;;;;;9.94;100.00;100378.66;4758293;30;20040;-73
2023/12/29 11:05:33;;;;;;;6.32;2.47;;;;;;;9.95;100.00;100383.88;4779026;30;20142;-72
2023/12/29 11:07:59;;;;;;;9.23;2.58;;;;;;;9.95;100.00;100383.06;4781409;30;20035;-72
2023/12/29 11:10:25;;;;;;;11.43;3.30;;;;;;;9.98;100.00;100383.09;4768579;30;20040;-73
2023/12/29 11:12:52;;;;;;;5.32;2.67;;;;;;;9.94;100.00;100382.25;4780459;29;20111;-73
2023/12/29 11:15:17;;;;;;;6.70;2.63;;;;;;;9.94;100.00;100376.66;4761896;30;20510;-77